Time;durP1;ratioP1;P1;durP2;ratioP2;P2;SDS_P1;SDS_P2;PMS_P1;PMS_P2;Temp;Humidity;BMP_temperature;BMP_pressure;BME280_temperature;BME280_humidity;BME280_pressure;Samples;Min_cycle;Max_cycle;Signal;HPM_P1;HPM_P2
2021/12/10 00:01:05;;;;;;;53.72;21.88;;;4.20;99.90;;;;;;4972483;28;20050;-79
2021/12/10 00:03:35;;;;;;;52.08;22.25;;;4.20;99.90;;;;;;4967131;28;20512;-79
2021/12/10 00:06:07;;;;;;;49.45;21.33;;;4.20;99.90;;;;;;4973530;28;20068;-79
2021/12/10 00:08:36;;;;;;;49.13;21.02;;;4.20;99.90;;;;;;4970327;28;20089;-79
2021/12/10 00:11:07;;;;;;;51.90;21.73;;;4.20;99.90;;;;;;4943498;28;20051;-79
2021/12/10 00:13:35;;;;;;;53.35;21.45;;;4.20;99.90;;;;;;4946741;28;20129;-79
2021/12/10 00:16:00;;;;;;;57.92;21.83;;;4.20;99.90;;;;;;4936019;29;20051;-79
2021/12/10 00:18:32;;;;;;;49.97;20.73;;;4.20;99.90;;;;;;4937401;28;20465;-79
2021/12/10 00:21:01;;;;;;;53.88;21.75;;;4.30;99.90;;;;;;4955317;28;20050;-79
2021/12/10 00:23:30;;;;;;;49.88;21.83;;;4.20;99.90;;;;;;4956106;28;20134;-79
2021/12/10 00:25:55;;;;;;;49.08;19.95;;;4.30;99.90;;;;;;4940060;29;20047;-79
2021/12/10 00:28:33;;;;;;;42.35;19.25;;;4.30;99.90;;;;;;4953758;28;20097;-79
2021/12/10 00:34:10;;;;;;;51.40;19.65;;;4.30;99.90;;;;;;4968459;28;20058;-79
2021/12/10 00:36:36;;;;;;;42.17;18.77;;;4.30;99.90;;;;;;4943617;28;20424;-79
2021/12/10 00:39:12;;;;;;;42.10;16.70;;;4.30;99.90;;;;;;4952007;28;20043;-80
2021/12/10 00:41:38;;;;;;;39.00;17.17;;;4.30;99.90;;;;;;4967325;28;20054;-79
2021/12/10 00:44:04;;;;;;;38.22;18.00;;;4.30;99.90;;;;;;4967424;28;20126;-79
2021/12/10 00:46:30;;;;;;;37.85;16.75;;;4.30;99.90;;;;;;4949097;28;20546;-79
2021/12/10 00:48:56;;;;;;;36.88;17.08;;;4.30;99.90;;;;;;4943684;28;20405;-79
2021/12/10 00:51:23;;;;;;;36.65;18.55;;;4.30;99.90;;;;;;4959481;28;20046;-79
2021/12/10 00:53:49;;;;;;;41.28;16.67;;;4.30;99.90;;;;;;4943428;29;20130;-79
2021/12/10 00:56:15;;;;;;;34.20;14.75;;;4.30;99.90;;;;;;4932831;28;20129;-79
2021/12/10 00:58:41;;;;;;;;;;;4.40;99.90;;;;;;4935989;28;20055;-79
2021/12/10 01:01:11;;;;;;;37.03;15.00;;;4.20;99.90;;;;;;4934362;29;20319;-79
2021/12/10 01:03:44;;;;;;;39.63;16.85;;;4.30;99.90;;;;;;4931846;29;20060;-79
2021/12/10 01:06:13;;;;;;;37.90;16.35;;;4.40;99.90;;;;;;4936484;29;20132;-80
2021/12/10 01:08:42;;;;;;;31.08;13.57;;;4.30;99.90;;;;;;4944959;28;20070;-79
2021/12/10 01:11:38;;;;;;;32.67;15.32;;;4.30;99.90;;;;;;4933683;29;20070;-79
2021/12/10 01:14:20;;;;;;;32.17;16.48;;;5.00;99.90;;;;;;4950516;29;20082;-79
2021/12/10 01:25:23;;;;;;;34.38;15.43;;;4.30;99.90;;;;;;4951593;29;20051;-79
2021/12/10 01:27:48;;;;;;;30.45;14.60;;;4.30;99.90;;;;;;4950832;29;20055;-79
2021/12/10 01:30:19;;;;;;;27.27;13.15;;;4.30;99.90;;;;;;4951687;28;20174;-79
2021/12/10 01:33:00;;;;;;;25.77;13.10;;;4.30;99.90;;;;;;4949083;29;20066;-80
2021/12/10 01:35:37;;;;;;;32.72;13.93;;;4.30;99.90;;;;;;4952784;28;20051;-79
2021/12/10 01:38:06;;;;;;;34.83;14.90;;;4.30;99.90;;;;;;4946582;28;20074;-79
2021/12/10 01:40:35;;;;;;;37.42;14.25;;;4.30;99.90;;;;;;4942045;29;20474;-80
2021/12/10 01:43:07;;;;;;;26.65;12.50;;;4.30;99.90;;;;;;4930735;29;20062;-80
2021/12/10 01:45:46;;;;;;;30.65;14.20;;;4.30;99.90;;;;;;4950748;29;20122;-80
2021/12/10 01:48:21;;;;;;;29.17;13.20;;;4.20;99.90;;;;;;4950118;28;20051;-79
2021/12/10 01:50:48;;;;;;;30.25;12.48;;;4.20;99.90;;;;;;4943692;29;20051;-78
2021/12/10 01:53:20;;;;;;;28.52;12.60;;;4.20;99.90;;;;;;4950558;28;20110;-79
2021/12/10 01:55:48;;;;;;;24.08;12.13;;;4.20;99.90;;;;;;4938103;29;20056;-79
2021/12/10 01:58:19;;;;;;;32.53;13.40;;;4.30;99.90;;;;;;4935088;29;20618;-79
2021/12/10 02:00:52;;;;;;;27.73;13.32;;;4.20;99.90;;;;;;4930874;29;20126;-79
2021/12/10 02:03:18;;;;;;;28.17;12.85;;;4.20;99.90;;;;;;4930024;29;20183;-79
2021/12/10 02:05:44;;;;;;;29.27;11.95;;;4.40;99.90;;;;;;4918768;29;20143;-79
2021/12/10 02:08:10;;;;;;;25.10;11.95;;;4.20;99.90;;;;;;4913340;29;20164;-79
2021/12/10 02:10:36;;;;;;;33.25;12.60;;;4.20;99.90;;;;;;4921076;29;20147;-79
2021/12/10 02:13:03;;;;;;;29.45;12.05;;;4.20;99.90;;;;;;4927641;29;20130;-79
2021/12/10 02:15:29;;;;;;;33.65;12.45;;;4.10;99.90;;;;;;4933047;29;20048;-79
2021/12/10 02:17:57;;;;;;;34.30;13.50;;;4.10;99.90;;;;;;4926726;29;20449;-79
2021/12/10 02:20:49;;;;;;;30.60;13.02;;;4.10;99.90;;;;;;4914254;29;20059;-79
2021/12/10 02:23:15;;;;;;;26.25;11.20;;;4.10;99.90;;;;;;4897239;29;20513;-78
2021/12/10 02:25:41;;;;;;;25.88;12.55;;;4.10;99.90;;;;;;4926655;29;20056;-79
2021/12/10 02:28:08;;;;;;;26.52;11.32;;;4.10;99.90;;;;;;4912266;29;20067;-79
2021/12/10 02:30:34;;;;;;;27.23;12.13;;;4.10;99.90;;;;;;4923624;29;20048;-79
2021/12/10 02:33:01;;;;;;;27.85;12.55;;;4.00;99.90;;;;;;4926584;29;20695;-78
2021/12/10 02:35:27;;;;;;;;;;;4.00;99.90;;;;;;4913414;29;20119;-79
2021/12/10 02:37:54;;;;;;;28.02;12.35;;;4.00;99.90;;;;;;4909847;29;19934;-79
2021/12/10 02:40:22;;;;;;;25.15;12.20;;;4.00;99.90;;;;;;4932909;29;20126;-79
2021/12/10 02:42:49;;;;;;;28.52;12.40;;;4.00;99.90;;;;;;4913484;29;20056;-78
2021/12/10 02:45:17;;;;;;;30.38;13.10;;;4.10;99.90;;;;;;4929568;29;20079;-79
2021/12/10 02:47:44;;;;;;;32.33;13.27;;;4.00;99.90;;;;;;4909293;29;20122;-79
2021/12/10 02:50:12;;;;;;;35.55;13.65;;;4.00;99.90;;;;;;4932011;29;20052;-79
2021/12/10 02:52:38;;;;;;;29.65;13.90;;;4.00;99.90;;;;;;4911472;29;20462;-79
2021/12/10 02:55:10;;;;;;;30.17;13.90;;;4.00;99.90;;;;;;4920183;29;20130;-78
2021/12/10 02:57:36;;;;;;;32.83;14.82;;;4.00;99.90;;;;;;4931278;29;20512;-78
2021/12/10 03:00:06;;;;;;;32.72;14.95;;;4.00;99.90;;;;;;4930358;29;20067;-79
2021/12/10 03:02:31;;;;;;;36.78;14.68;;;4.00;99.90;;;;;;4930472;29;20505;-79
2021/12/10 03:04:57;;;;;;;33.63;16.48;;;4.00;99.90;;;;;;4931002;29;20067;-79
2021/12/10 03:07:23;;;;;;;37.35;16.77;;;3.90;99.90;;;;;;4936182;29;20048;-79
2021/12/10 03:09:51;;;;;;;33.97;16.42;;;4.10;99.90;;;;;;4935417;29;20080;-78
2021/12/10 03:12:19;;;;;;;33.38;16.33;;;3.90;99.90;;;;;;4926020;29;20051;-79
2021/12/10 03:14:50;;;;;;;36.55;17.23;;;3.90;99.90;;;;;;4917210;29;20135;-79
2021/12/10 03:17:20;;;;;;;40.72;16.60;;;3.90;99.90;;;;;;4934058;29;20066;-79
2021/12/10 03:19:47;;;;;;;34.08;15.95;;;3.90;99.90;;;;;;4918308;29;20048;-79
2021/12/10 03:22:12;;;;;;;39.65;16.70;;;3.90;99.90;;;;;;4923501;29;20052;-78
2021/12/10 03:24:38;;;;;;;35.15;15.80;;;3.90;99.90;;;;;;4935953;29;20383;-78
2021/12/10 03:27:08;;;;;;;37.25;16.40;;;3.80;99.90;;;;;;4895354;29;20052;-78
2021/12/10 03:29:36;;;;;;;42.92;18.50;;;3.80;99.90;;;;;;4915518;29;20043;-79
2021/12/10 03:32:08;;;;;;;38.33;16.60;;;3.80;99.90;;;;;;4924718;29;20122;-79
2021/12/10 03:34:34;;;;;;;43.22;16.95;;;3.80;99.90;;;;;;4926422;29;20072;-79
2021/12/10 03:37:01;;;;;;;;;;;3.90;99.90;;;;;;4934284;29;20063;-79
2021/12/10 03:39:27;;;;;;;34.28;15.75;;;3.80;99.90;;;;;;4922815;29;19923;-79
2021/12/10 03:41:55;;;;;;;;;;;3.80;99.90;;;;;;4918311;29;20110;-78
2021/12/10 03:44:20;;;;;;;30.08;15.73;;;3.80;99.90;;;;;;4935124;29;19926;-79
2021/12/10 03:46:47;;;;;;;27.80;15.23;;;3.80;99.90;;;;;;4914649;29;20066;-79
2021/12/10 03:49:14;;;;;;;33.10;14.98;;;3.70;99.90;;;;;;4914391;29;20808;-79
2021/12/10 03:51:40;;;;;;;28.75;14.88;;;3.70;99.90;;;;;;4924855;29;20123;-79
2021/12/10 03:54:07;;;;;;;28.00;14.43;;;3.80;99.90;;;;;;4917681;29;20083;-79
2021/12/10 03:56:37;;;;;;;28.33;15.02;;;3.60;99.90;;;;;;4930088;29;20390;-79
2021/12/10 03:59:10;;;;;;;37.10;15.80;;;3.50;99.90;;;;;;4923373;29;20060;-79
2021/12/10 04:01:38;;;;;;;32.70;16.45;;;3.50;99.90;;;;;;4913166;29;20059;-78
2021/12/10 04:04:08;;;;;;;30.95;16.08;;;3.50;99.90;;;;;;4923964;29;20054;-78
2021/12/10 04:06:34;;;;;;;31.80;15.23;;;3.60;99.90;;;;;;4917325;29;20064;-79
2021/12/10 04:09:00;;;;;;;32.25;15.73;;;3.50;99.90;;;;;;4914359;29;20052;-78
2021/12/10 04:11:27;;;;;;;33.05;15.75;;;3.40;99.90;;;;;;4898054;29;20070;-79
2021/12/10 04:13:54;;;;;;;35.80;15.75;;;3.50;99.90;;;;;;4914583;29;20181;-79
2021/12/10 04:16:23;;;;;;;27.80;14.65;;;3.70;99.90;;;;;;4913561;29;20056;-78
2021/12/10 04:18:50;;;;;;;30.33;16.33;;;3.40;99.90;;;;;;4923092;29;20052;-78
2021/12/10 04:21:17;;;;;;;32.95;16.45;;;3.30;99.90;;;;;;4934118;29;20537;-79
2021/12/10 04:23:45;;;;;;;31.92;16.27;;;3.20;99.90;;;;;;4930737;29;20055;-79
2021/12/10 04:26:14;;;;;;;29.17;15.25;;;3.90;99.90;;;;;;4932481;29;20087;-79
2021/12/10 04:28:40;;;;;;;35.38;15.60;;;3.20;99.90;;;;;;4928937;29;20409;-79
2021/12/10 04:31:06;;;;;;;32.90;15.32;;;3.20;99.90;;;;;;4913626;29;20059;-78
2021/12/10 04:33:32;;;;;;;36.70;16.63;;;3.20;99.90;;;;;;4921557;29;20044;-79
2021/12/10 04:35:59;;;;;;;37.03;16.08;;;3.20;99.90;;;;;;4931821;29;20565;-79
2021/12/10 04:38:27;;;;;;;27.17;14.95;;;3.10;99.90;;;;;;4932761;29;20062;-79
2021/12/10 04:40:56;;;;;;;31.27;16.00;;;3.10;99.90;;;;;;4930784;29;20052;-78
2021/12/10 04:43:23;;;;;;;29.73;12.88;;;3.00;99.90;;;;;;4933608;29;20103;-78
2021/12/10 04:45:53;;;;;;;28.90;14.50;;;3.00;99.90;;;;;;4913064;29;20051;-79
2021/12/10 04:48:19;;;;;;;28.48;15.30;;;3.00;99.90;;;;;;4927045;29;20059;-79
2021/12/10 04:50:45;;;;;;;31.70;15.10;;;2.90;99.90;;;;;;4933423;29;20044;-79
2021/12/10 04:53:11;;;;;;;26.02;12.60;;;2.80;99.90;;;;;;4932124;29;20098;-78
2021/12/10 04:55:38;;;;;;;29.92;15.35;;;2.80;99.90;;;;;;4932215;29;20050;-79
2021/12/10 04:58:04;;;;;;;30.08;14.23;;;2.70;99.90;;;;;;4926004;29;20048;-78
2021/12/10 05:00:36;;;;;;;29.33;15.00;;;2.70;99.90;;;;;;4913474;29;20055;-79
2021/12/10 05:03:04;;;;;;;31.70;14.32;;;2.70;99.90;;;;;;4915904;29;20059;-78
2021/12/10 05:05:30;;;;;;;22.65;12.85;;;2.60;99.90;;;;;;4963353;28;20054;-79
2021/12/10 05:07:56;;;;;;;25.75;13.65;;;2.60;99.90;;;;;;4972098;28;20042;-78
2021/12/10 05:10:22;;;;;;;24.20;12.88;;;2.90;99.90;;;;;;4950263;28;20046;-79
2021/12/10 05:12:48;;;;;;;26.55;12.43;;;2.40;99.90;;;;;;4946905;29;20054;-79
2021/12/10 05:15:22;;;;;;;26.27;12.50;;;2.30;99.90;;;;;;4935100;29;20047;-79
2021/12/10 05:17:51;;;;;;;26.60;11.70;;;2.30;99.90;;;;;;4930663;28;20066;-79
2021/12/10 05:20:31;;;;;;;22.65;11.88;;;2.30;99.90;;;;;;4935448;29;20055;-78
2021/12/10 05:22:57;;;;;;;26.35;12.80;;;2.20;99.90;;;;;;4936243;29;20054;-79
2021/12/10 05:25:26;;;;;;;21.77;10.77;;;2.20;99.90;;;;;;4934912;29;20055;-78
2021/12/10 05:27:52;;;;;;;25.02;12.57;;;2.20;99.90;;;;;;4965650;28;20054;-78
2021/12/10 05:30:20;;;;;;;;;;;2.10;99.90;;;;;;4971133;28;20434;-78
2021/12/10 05:32:46;;;;;;;22.33;11.65;;;2.10;99.90;;;;;;4935893;29;19922;-78
2021/12/10 05:35:12;;;;;;;29.95;13.30;;;2.00;99.90;;;;;;4953789;28;20061;-78
2021/12/10 05:37:39;;;;;;;25.48;11.82;;;2.00;99.90;;;;;;4953004;29;20117;-79
2021/12/10 05:40:06;;;;;;;25.13;11.93;;;2.00;99.90;;;;;;4953463;28;20047;-78
2021/12/10 05:42:32;;;;;;;24.33;11.27;;;2.00;99.90;;;;;;4914499;28;20089;-78
2021/12/10 05:44:58;;;;;;;24.65;12.10;;;2.50;99.90;;;;;;4971996;28;20082;-79
2021/12/10 05:47:24;;;;;;;21.52;12.18;;;2.00;99.90;;;;;;4920662;29;20399;-79
2021/12/10 05:49:50;;;;;;;26.25;12.98;;;2.00;99.90;;;;;;4939717;28;20404;-78
2021/12/10 05:52:16;;;;;;;24.52;11.70;;;1.90;99.90;;;;;;4954038;28;20051;-79
2021/12/10 05:54:43;;;;;;;25.02;12.27;;;1.90;99.90;;;;;;4949665;29;20062;-78
2021/12/10 05:57:10;;;;;;;24.98;11.80;;;1.90;99.90;;;;;;4934253;29;20614;-78
2021/12/10 05:59:36;;;;;;;25.27;11.45;;;1.90;99.90;;;;;;4967031;28;20067;-79
2021/12/10 06:02:03;;;;;;;22.48;11.52;;;1.90;99.90;;;;;;4960994;28;20051;-78
2021/12/10 06:04:29;;;;;;;26.02;11.40;;;1.90;99.90;;;;;;4936379;29;20063;-79
2021/12/10 06:06:56;;;;;;;25.50;11.48;;;1.80;99.90;;;;;;4917938;29;20505;-79
2021/12/10 06:09:23;;;;;;;21.25;11.05;;;1.80;99.90;;;;;;4929496;29;20127;-78
2021/12/10 06:11:50;;;;;;;24.05;11.32;;;1.80;99.90;;;;;;4923238;29;20056;-79
2021/12/10 06:14:15;;;;;;;;;;;1.80;99.90;;;;;;4932869;29;20059;-78
2021/12/10 06:16:41;;;;;;;25.23;11.70;;;1.70;99.90;;;;;;4928718;29;19986;-79
2021/12/10 06:19:08;;;;;;;23.25;11.32;;;1.70;99.90;;;;;;4921027;29;20055;-78
2021/12/10 06:21:35;;;;;;;22.92;11.95;;;2.10;99.90;;;;;;4926209;29;20056;-78
2021/12/10 06:24:03;;;;;;;27.08;11.32;;;2.10;99.90;;;;;;4923562;29;20063;-79
2021/12/10 06:26:29;;;;;;;28.63;11.20;;;1.70;99.90;;;;;;4906362;29;20275;-79
2021/12/10 06:28:55;;;;;;;22.92;11.00;;;1.70;99.90;;;;;;4931739;29;20490;-79
2021/12/10 06:31:22;;;;;;;20.85;9.65;;;1.60;99.90;;;;;;4930102;29;20059;-78
2021/12/10 06:33:49;;;;;;;22.70;10.60;;;1.60;99.90;;;;;;4931303;29;20048;-79
2021/12/10 06:36:16;;;;;;;24.08;10.38;;;2.40;99.90;;;;;;4931078;29;20405;-79
2021/12/10 06:38:43;;;;;;;23.73;10.48;;;1.60;99.90;;;;;;4933706;29;20493;-79
2021/12/10 06:41:10;;;;;;;22.95;10.38;;;1.60;99.90;;;;;;4934613;29;20098;-79
2021/12/10 06:43:37;;;;;;;21.65;9.68;;;1.50;99.90;;;;;;4913229;29;20052;-79
2021/12/10 06:46:06;;;;;;;23.05;10.00;;;1.50;99.90;;;;;;4929048;29;20086;-79
2021/12/10 06:48:33;;;;;;;22.42;9.77;;;1.50;99.90;;;;;;4934593;29;20055;-78
2021/12/10 06:51:09;;;;;;;19.55;8.82;;;1.50;99.90;;;;;;4935325;29;20511;-78
2021/12/10 06:53:38;;;;;;;21.45;9.77;;;1.50;99.90;;;;;;4935884;29;20087;-79
2021/12/10 06:56:04;;;;;;;18.20;9.30;;;1.50;99.90;;;;;;4903377;29;20095;-79
2021/12/10 06:58:33;;;;;;;19.55;9.40;;;2.10;99.90;;;;;;4934736;29;20516;-79
2021/12/10 07:01:16;;;;;;;24.42;9.75;;;1.40;99.90;;;;;;4919018;29;20066;-79
2021/12/10 07:03:45;;;;;;;19.60;9.15;;;1.40;99.90;;;;;;4931052;29;20075;-79
2021/12/10 07:06:11;;;;;;;22.27;10.10;;;1.70;99.90;;;;;;4923671;29;20060;-79
2021/12/10 07:08:39;;;;;;;19.30;9.40;;;1.40;99.90;;;;;;4900276;29;20051;-79
2021/12/10 07:11:08;;;;;;;17.30;8.45;;;1.40;99.90;;;;;;4935262;29;20074;-79
2021/12/10 07:13:35;;;;;;;18.92;9.05;;;1.30;99.90;;;;;;4917992;29;20114;-79
2021/12/10 07:16:02;;;;;;;20.83;8.80;;;1.30;99.90;;;;;;4918444;29;20421;-78
2021/12/10 07:18:27;;;;;;;22.35;8.65;;;1.40;99.90;;;;;;4924351;29;20638;-79
2021/12/10 07:20:54;;;;;;;17.00;8.07;;;2.20;99.90;;;;;;4911309;29;20048;-79
2021/12/10 07:23:21;;;;;;;;;;;1.30;99.90;;;;;;4915695;29;20048;-79
2021/12/10 07:25:47;;;;;;;22.00;8.15;;;1.30;99.90;;;;;;4918364;29;19927;-79
2021/12/10 07:28:13;;;;;;;16.02;7.88;;;1.20;99.90;;;;;;4917837;29;20123;-79
2021/12/10 07:30:39;;;;;;;19.00;8.77;;;1.20;99.90;;;;;;4899681;29;20498;-79
2021/12/10 07:33:06;;;;;;;22.08;9.07;;;1.20;99.90;;;;;;4906304;29;20055;-79
2021/12/10 07:35:33;;;;;;;18.48;8.48;;;1.90;99.90;;;;;;4920056;29;20052;-78
2021/12/10 07:37:59;;;;;;;20.70;9.00;;;1.60;99.90;;;;;;4926295;29;20048;-79
2021/12/10 07:40:28;;;;;;;20.55;8.65;;;1.20;99.90;;;;;;4925076;29;20412;-79
2021/12/10 07:42:54;;;;;;;17.88;8.00;;;1.20;99.90;;;;;;4934260;29;20039;-79
2021/12/10 07:45:21;;;;;;;20.77;9.07;;;1.20;99.90;;;;;;4926286;29;20048;-80
2021/12/10 07:47:49;;;;;;;17.58;8.27;;;1.20;99.90;;;;;;4902814;29;20064;-79
2021/12/10 07:50:23;;;;;;;18.95;8.57;;;1.20;99.90;;;;;;4913648;29;20051;-79
2021/12/10 07:52:54;;;;;;;18.58;8.82;;;1.20;99.90;;;;;;4928027;29;20485;-79
2021/12/10 07:55:26;;;;;;;21.50;8.10;;;1.20;99.90;;;;;;4931767;29;20106;-78
2021/12/10 07:57:53;;;;;;;20.00;7.72;;;1.20;99.90;;;;;;4932474;29;20055;-80
2021/12/10 08:00:21;;;;;;;21.27;8.27;;;1.20;99.90;;;;;;4922833;29;20059;-79
2021/12/10 08:02:48;;;;;;;21.75;8.43;;;1.10;99.90;;;;;;4916674;29;20047;-79
2021/12/10 08:05:15;;;;;;;22.50;8.60;;;1.20;99.90;;;;;;4969304;28;20074;-79
2021/12/10 08:07:41;;;;;;;17.83;8.52;;;1.20;99.90;;;;;;4956506;28;20050;-79
2021/12/10 08:10:09;;;;;;;15.70;7.70;;;1.20;99.90;;;;;;4972033;28;20391;-79
2021/12/10 08:12:34;;;;;;;20.38;8.65;;;1.20;99.90;;;;;;4949485;28;20050;-79
2021/12/10 08:15:00;;;;;;;19.95;8.10;;;1.20;99.90;;;;;;4972273;28;20492;-79
2021/12/10 08:17:26;;;;;;;24.33;9.10;;;1.20;99.90;;;;;;4953512;28;20057;-79
2021/12/10 08:19:53;;;;;;;21.35;8.95;;;1.20;99.90;;;;;;4955610;28;20050;-79
2021/12/10 08:22:19;;;;;;;20.40;8.25;;;1.20;99.90;;;;;;4955543;28;20480;-79
2021/12/10 08:24:45;;;;;;;14.23;7.95;;;1.20;99.90;;;;;;4955905;28;20051;-79
2021/12/10 08:27:12;;;;;;;17.92;8.02;;;1.30;99.90;;;;;;4955308;28;20133;-79
2021/12/10 08:29:41;;;;;;;18.60;9.48;;;1.30;99.90;;;;;;4955701;28;20059;-79
2021/12/10 08:32:11;;;;;;;17.73;8.32;;;1.30;99.90;;;;;;4963841;28;20078;-79
2021/12/10 08:34:37;;;;;;;18.40;8.23;;;1.30;99.90;;;;;;4926982;28;20066;-79
2021/12/10 08:37:03;;;;;;;15.60;8.55;;;1.40;99.90;;;;;;4913547;29;20620;-78
2021/12/10 08:39:29;;;;;;;;;;;1.40;99.90;;;;;;4953246;29;20051;-78
2021/12/10 08:41:56;;;;;;;19.67;8.93;;;1.40;99.90;;;;;;4936076;29;19927;-79
2021/12/10 08:44:23;;;;;;;20.50;7.88;;;1.40;99.90;;;;;;4936774;28;20047;-79
2021/12/10 08:46:49;;;;;;;18.92;8.82;;;1.40;99.90;;;;;;4964520;28;20460;-78
2021/12/10 08:49:16;;;;;;;18.63;8.68;;;1.50;99.90;;;;;;4966859;28;20043;-79
2021/12/10 08:51:49;;;;;;;16.85;7.97;;;1.50;99.90;;;;;;4928358;28;20105;-79
2021/12/10 08:54:17;;;;;;;18.60;7.72;;;1.60;99.90;;;;;;4937185;28;20067;-79
2021/12/10 08:56:45;;;;;;;15.73;7.32;;;1.60;99.90;;;;;;4940009;29;20055;-79
2021/12/10 08:59:12;;;;;;;15.50;7.60;;;2.00;99.90;;;;;;4967685;28;20047;-79
2021/12/10 09:01:41;;;;;;;17.08;7.40;;;1.70;99.90;;;;;;4951620;28;20424;-80
2021/12/10 09:04:09;;;;;;;15.88;7.32;;;1.70;99.90;;;;;;4965090;28;20116;-79
2021/12/10 09:06:37;;;;;;;17.00;7.70;;;1.70;99.90;;;;;;4912553;28;20050;-79
2021/12/10 09:09:06;;;;;;;16.50;7.97;;;1.80;99.90;;;;;;4962296;28;20050;-80
2021/12/10 09:11:34;;;;;;;18.02;7.53;;;1.80;99.90;;;;;;4949728;28;20043;-80
2021/12/10 09:14:00;;;;;;;16.90;7.45;;;1.80;99.90;;;;;;4941018;28;20051;-79
2021/12/10 09:16:29;;;;;;;15.95;7.63;;;2.70;99.90;;;;;;4938075;28;20097;-80
2021/12/10 09:19:00;;;;;;;19.50;7.68;;;1.90;99.90;;;;;;4933740;28;20493;-80
2021/12/10 09:21:26;;;;;;;18.13;7.57;;;2.00;99.90;;;;;;4941292;28;20051;-79
2021/12/10 09:23:55;;;;;;;;;;;2.00;99.90;;;;;;4963679;28;20054;-80
2021/12/10 09:26:25;;;;;;;14.57;6.88;;;2.00;99.90;;;;;;4956803;28;20292;-80
2021/12/10 09:28:51;;;;;;;14.10;6.43;;;2.10;99.90;;;;;;4955850;28;20091;-80
2021/12/10 09:31:24;;;;;;;13.52;6.70;;;2.50;99.90;;;;;;4948046;28;20408;-79
2021/12/10 09:33:57;;;;;;;13.15;6.63;;;2.20;99.90;;;;;;4953518;28;20051;-80
2021/12/10 09:36:25;;;;;;;18.13;7.30;;;2.90;99.90;;;;;;4947532;28;20062;-79
2021/12/10 09:38:51;;;;;;;14.75;7.25;;;2.30;99.90;;;;;;4965305;28;20043;-79
2021/12/10 09:41:18;;;;;;;15.18;6.68;;;2.30;99.90;;;;;;4912196;28;20043;-78
2021/12/10 09:43:44;;;;;;;15.80;7.05;;;2.30;99.90;;;;;;4936952;29;20115;-80
2021/12/10 09:46:11;;;;;;;12.07;6.13;;;2.40;99.90;;;;;;4917816;28;20043;-76
2021/12/10 09:48:39;;;;;;;15.00;6.20;;;2.40;99.90;;;;;;4962511;28;20055;-77
2021/12/10 09:51:12;;;;;;;15.40;6.60;;;2.50;99.90;;;;;;4944801;28;20511;-76
2021/12/10 09:53:40;;;;;;;14.25;6.53;;;2.50;99.90;;;;;;4960399;28;20142;-80
2021/12/10 09:56:06;;;;;;;16.10;6.30;;;2.60;99.90;;;;;;4949168;28;20051;-80
2021/12/10 09:58:32;;;;;;;;;;;2.60;99.90;;;;;;4962368;28;20043;-79
2021/12/10 10:01:03;;;;;;;16.80;6.25;;;2.70;99.90;;;;;;4961319;28;20013;-77
2021/12/10 10:03:37;;;;;;;11.43;5.65;;;2.70;99.90;;;;;;4944637;28;20091;-74
2021/12/10 10:06:04;;;;;;;13.18;6.03;;;2.80;99.90;;;;;;4952773;28;20484;-74
2021/12/10 10:08:32;;;;;;;18.40;6.30;;;2.90;99.90;;;;;;4929235;28;20109;-74
2021/12/10 10:11:06;;;;;;;12.57;6.28;;;3.40;99.90;;;;;;4947033;29;20058;-75
2021/12/10 10:13:36;;;;;;;13.55;5.90;;;3.00;99.90;;;;;;4919383;29;20411;-74
2021/12/10 10:16:02;;;;;;;12.95;6.30;;;3.10;99.90;;;;;;4938270;29;20110;-75
2021/12/10 10:18:37;;;;;;;11.82;5.40;;;3.10;99.90;;;;;;4954225;29;20050;-74
2021/12/10 10:21:14;;;;;;;11.98;5.03;;;3.20;99.90;;;;;;4955783;29;20047;-74
2021/12/10 10:23:42;;;;;;;12.75;5.47;;;3.20;99.90;;;;;;4955187;29;20501;-75
2021/12/10 10:26:14;;;;;;;10.57;4.93;;;3.30;99.90;;;;;;4948987;28;20134;-74
2021/12/10 10:28:41;;;;;;;12.27;4.93;;;3.40;99.90;;;;;;4957422;28;20059;-74
2021/12/10 10:31:16;;;;;;;10.40;4.70;;;3.50;99.90;;;;;;4938664;28;20649;-74
2021/12/10 10:33:45;;;;;;;12.27;5.40;;;3.50;99.90;;;;;;4938552;28;20086;-74
2021/12/10 10:36:19;;;;;;;9.88;4.80;;;3.60;99.90;;;;;;4957902;28;20062;-75
2021/12/10 10:38:58;;;;;;;11.13;4.78;;;3.80;99.90;;;;;;4961886;28;20047;-75
2021/12/10 10:41:27;;;;;;;12.00;4.32;;;3.70;99.90;;;;;;4954523;29;20138;-75
2021/12/10 10:43:54;;;;;;;9.20;5.03;;;3.80;99.90;;;;;;4922905;29;20130;-75
2021/12/10 10:46:20;;;;;;;10.10;4.57;;;3.90;99.90;;;;;;4936534;29;20054;-75
2021/12/10 10:48:49;;;;;;;11.27;4.88;;;3.90;99.90;;;;;;4906472;29;20814;-74
2021/12/10 10:51:29;;;;;;;10.88;4.90;;;4.00;99.90;;;;;;4941127;28;20106;-75
2021/12/10 10:53:55;;;;;;;8.90;3.90;;;4.10;99.90;;;;;;4974537;28;20054;-74
2021/12/10 10:56:30;;;;;;;11.50;4.40;;;4.20;99.90;;;;;;4974268;28;20055;-74
2021/12/10 10:59:01;;;;;;;9.80;4.18;;;4.40;99.90;;;;;;4974615;28;20053;-75
2021/12/10 11:01:46;;;;;;;8.00;3.80;;;4.50;99.90;;;;;;4964704;28;20043;-77
2021/12/10 11:04:24;;;;;;;10.70;4.05;;;4.50;99.90;;;;;;4938922;28;20095;-77
2021/12/10 11:06:52;;;;;;;11.45;3.70;;;4.60;99.90;;;;;;4947514;28;20063;-77
2021/12/10 11:09:30;;;;;;;10.68;4.00;;;4.80;99.90;;;;;;4952502;28;20051;-77
2021/12/10 11:11:59;;;;;;;8.48;3.75;;;5.10;99.90;;;;;;4961300;28;20102;-78
2021/12/10 11:14:39;;;;;;;9.52;3.55;;;5.50;99.90;;;;;;4937552;28;20097;-78
2021/12/10 11:17:12;;;;;;;7.85;3.70;;;5.90;99.90;;;;;;4943657;28;20518;-77
2021/12/10 11:19:41;;;;;;;6.15;3.30;;;6.20;99.90;;;;;;4941760;28;20533;-77
2021/12/10 11:22:14;;;;;;;7.72;3.30;;;6.60;99.90;;;;;;4962922;28;20043;-78
2021/12/10 11:24:46;;;;;;;8.95;3.25;;;6.80;99.90;;;;;;4948061;28;20149;-78
2021/12/10 11:27:25;;;;;;;8.52;3.40;;;7.00;99.90;;;;;;4971730;28;20047;-79
2021/12/10 11:30:04;;;;;;;9.30;3.13;;;7.20;99.90;;;;;;4955099;28;20155;-80
2021/12/10 11:32:35;;;;;;;5.78;3.08;;;7.10;99.90;;;;;;4915214;28;20055;-79
2021/12/10 11:35:25;;;;;;;9.05;3.25;;;7.10;99.90;;;;;;4953120;28;20055;-80
2021/12/10 11:38:05;;;;;;;7.72;3.10;;;7.00;99.90;;;;;;4971988;28;20057;-78
2021/12/10 11:41:09;;;;;;;9.20;2.88;;;7.10;99.90;;;;;;4970507;28;20055;-78
2021/12/10 11:47:12;;;;;;;6.47;2.80;;;7.30;99.90;;;;;;4960577;28;20051;-78
2021/12/10 11:49:24;;;;;;;7.15;2.92;;;7.60;99.90;;;;;;4951066;28;20055;-78
2021/12/10 11:52:06;;;;;;;9.93;3.13;;;7.80;99.90;;;;;;4945793;29;20097;-79
2021/12/10 11:54:50;;;;;;;8.55;3.30;;;8.10;99.90;;;;;;4953992;29;20055;-78
2021/12/10 11:57:18;;;;;;;6.53;2.72;;;8.20;99.90;;;;;;4950503;28;20063;-78
2021/12/10 11:59:45;;;;;;;7.55;2.75;;;8.40;99.90;;;;;;4972879;28;20047;-79
2021/12/10 12:02:17;;;;;;;7.18;2.90;;;8.60;99.90;;;;;;4954019;28;20578;-78
2021/12/10 12:05:11;;;;;;;9.50;3.05;;;8.60;99.90;;;;;;4935971;28;20055;-78
2021/12/10 12:07:41;;;;;;;5.90;2.92;;;8.80;99.90;;;;;;4960457;28;20401;-78
2021/12/10 12:10:26;;;;;;;8.07;3.30;;;9.00;99.90;;;;;;4946167;29;20054;-78
2021/12/10 12:12:55;;;;;;;7.57;2.90;;;9.30;99.90;;;;;;4951691;28;20058;-79
2021/12/10 12:15:37;;;;;;;8.23;3.22;;;9.40;99.90;;;;;;4955773;28;20059;-78
2021/12/10 12:18:46;;;;;;;7.70;3.00;;;9.60;99.90;;;;;;4957832;28;20042;-79
2021/12/10 12:27:09;;;;;;;8.15;2.88;;;9.80;99.90;;;;;;4954497;28;20670;-79
2021/12/10 12:29:43;;;;;;;6.43;2.60;;;9.90;99.90;;;;;;4952698;28;20055;-80
2021/12/10 12:32:13;;;;;;;6.70;3.00;;;10.10;99.90;;;;;;4969588;28;20089;-79
2021/12/10 12:34:39;;;;;;;7.75;2.65;;;10.20;99.90;;;;;;4967495;28;20114;-78
2021/12/10 12:37:09;;;;;;;6.63;2.60;;;10.10;99.90;;;;;;4954024;28;20480;-79
2021/12/10 12:39:37;;;;;;;5.25;2.53;;;10.00;99.90;;;;;;4972424;28;20124;-79
2021/12/10 12:42:23;;;;;;;6.93;2.65;;;9.90;99.90;;;;;;4969730;28;20034;-79
2021/12/10 12:44:54;;;;;;;9.85;2.75;;;10.00;99.90;;;;;;4963620;28;20039;-80
2021/12/10 12:47:32;;;;;;;9.85;2.92;;;10.20;99.90;;;;;;4935609;28;20057;-82
2021/12/10 12:50:10;;;;;;;5.30;2.72;;;10.40;99.90;;;;;;4953418;28;20806;-80
2021/12/10 12:53:02;;;;;;;8.68;2.70;;;10.40;99.90;;;;;;4965818;28;20058;-79
2021/12/10 12:55:46;;;;;;;5.28;2.40;;;10.20;99.90;;;;;;4967680;28;20504;-80
2021/12/10 12:58:15;;;;;;;8.15;2.40;;;10.10;99.90;;;;;;4938987;28;20476;-78
2021/12/10 13:01:03;;;;;;;7.10;2.88;;;9.90;99.90;;;;;;4954635;28;20416;-78
2021/12/10 13:04:07;;;;;;;7.53;2.67;;;9.70;99.90;;;;;;4954021;28;20121;-78
2021/12/10 13:06:49;;;;;;;6.45;2.72;;;9.60;99.90;;;;;;4931270;29;20071;-78
2021/12/10 13:09:27;;;;;;;6.70;2.90;;;9.60;99.90;;;;;;4967469;28;20403;-78
2021/12/10 13:12:04;;;;;;;6.60;2.40;;;9.60;99.90;;;;;;4953467;28;20047;-78
2021/12/10 13:14:48;;;;;;;9.82;2.95;;;9.60;99.90;;;;;;4955070;28;20492;-78
2021/12/10 13:17:37;;;;;;;11.02;3.17;;;9.40;99.90;;;;;;4953275;28;20546;-78
2021/12/10 13:20:14;;;;;;;7.65;3.30;;;9.30;99.90;;;;;;4938595;28;20043;-78